Time;durP1;ratioP1;P1;durP2;ratioP2;P2;SDS_P1;SDS_P2;PMS_P1;PMS_P2;Temp;Humidity;BMP_temperature;BMP_pressure;BME280_temperature;BME280_humidity;BME280_pressure;Samples;Min_cycle;Max_cycle;Signal;HPM_P1;HPM_P2
2022/12/19 00:01:34;;;;;;;35.37;21.10;;;;;;;-2.11;100.00;99074.31;5076632;28;20464;-70
2022/12/19 00:04:03;;;;;;;34.23;21.30;;;;;;;-2.09;100.00;99078.47;5076595;28;20995;-70
2022/12/19 00:06:31;;;;;;;35.57;21.57;;;;;;;-2.12;100.00;99086.50;5075713;28;20433;-70
2022/12/19 00:08:59;;;;;;;33.83;21.33;;;;;;;-2.06;100.00;99091.28;5076878;28;20551;-70
2022/12/19 00:11:27;;;;;;;36.00;22.17;;;;;;;-2.09;100.00;99091.50;5076705;28;20502;-70
2022/12/19 00:13:54;;;;;;;36.97;22.43;;;;;;;-2.07;100.00;99079.16;5076739;28;20437;-70
2022/12/19 00:16:23;;;;;;;36.73;21.53;;;;;;;-2.03;100.00;99082.41;5076450;28;20441;-70
2022/12/19 00:18:50;;;;;;;37.70;22.43;;;;;;;-1.99;100.00;99081.22;5076654;28;20437;-70
2022/12/19 00:21:20;;;;;;;38.20;22.07;;;;;;;-1.98;100.00;99072.44;5076352;28;20472;-70
2022/12/19 00:23:47;;;;;;;37.17;22.67;;;;;;;-1.98;100.00;99064.63;5076514;28;20509;-70
2022/12/19 00:26:19;;;;;;;36.97;21.53;;;;;;;-1.97;100.00;99072.34;5076564;28;20433;-70
2022/12/19 00:28:47;;;;;;;35.70;22.13;;;;;;;-2.02;100.00;99065.81;5076424;28;20433;-70
2022/12/19 00:31:16;;;;;;;34.60;21.73;;;;;;;-2.04;100.00;99068.53;5076376;28;20514;-70
2022/12/19 00:33:42;;;;;;;36.47;22.00;;;;;;;-2.00;100.00;99067.34;5076454;28;20444;-70
2022/12/19 00:36:17;;;;;;;36.43;22.33;;;;;;;-1.97;100.00;99051.50;5076015;28;20449;-70
2022/12/19 00:38:44;;;;;;;38.40;22.63;;;;;;;-1.94;100.00;99061.66;5076328;28;20436;-70
2022/12/19 00:41:14;;;;;;;39.23;21.70;;;;;;;-1.93;100.00;99049.47;5076188;28;20457;-70
2022/12/19 00:43:41;;;;;;;36.47;21.53;;;;;;;-1.91;100.00;99048.41;5076944;28;20477;-70
2022/12/19 00:46:11;;;;;;;37.97;23.07;;;;;;;-1.88;100.00;99037.75;5075807;28;20441;-70
2022/12/19 00:48:37;;;;;;;35.20;21.03;;;;;;;-1.84;100.00;99033.13;5075789;28;20935;-70
2022/12/19 00:51:06;;;;;;;37.60;23.80;;;;;;;-1.84;100.00;99035.75;5076022;28;20552;-70
2022/12/19 00:53:33;;;;;;;33.07;21.60;;;;;;;-1.82;100.00;99031.22;5075752;28;20437;-70
2022/12/19 00:56:10;;;;;;;38.17;22.83;;;;;;;-1.84;100.00;99025.31;5075893;28;20445;-70
2022/12/19 00:58:36;;;;;;;40.93;22.50;;;;;;;-1.85;100.00;99034.09;5075686;28;20939;-70
2022/12/19 01:01:08;;;;;;;42.30;23.60;;;;;;;-1.86;100.00;99035.84;5075699;28;20461;-70
2022/12/19 01:03:34;;;;;;;38.00;23.10;;;;;;;-1.81;100.00;99022.50;5075767;28;20492;-70
2022/12/19 01:06:01;;;;;;;38.13;23.37;;;;;;;-1.85;100.00;99024.47;5075815;28;20451;-70
2022/12/19 01:08:27;;;;;;;35.63;22.23;;;;;;;-1.81;100.00;99014.66;5075769;28;20437;-70
2022/12/19 01:10:54;;;;;;;36.87;22.47;;;;;;;-1.76;100.00;99013.34;5075588;28;20468;-70
2022/12/19 01:13:21;;;;;;;37.50;22.70;;;;;;;-1.73;100.00;99018.31;5075298;28;20437;-70
2022/12/19 01:15:48;;;;;;;41.07;22.93;;;;;;;-1.70;100.00;99005.06;5075263;28;20502;-70
2022/12/19 01:18:14;;;;;;;35.53;22.10;;;;;;;-1.68;100.00;99004.91;5075303;28;20959;-70
2022/12/19 01:20:42;;;;;;;40.80;23.73;;;;;;;-1.69;100.00;99016.31;5075464;28;20434;-70
2022/12/19 01:23:10;;;;;;;37.20;23.03;;;;;;;-1.68;100.00;99000.53;5075165;28;20448;-70
2022/12/19 01:25:37;;;;;;;40.67;23.73;;;;;;;-1.64;100.00;98999.38;5075390;28;20477;-70
2022/12/19 01:28:07;;;;;;;38.43;22.63;;;;;;;-1.67;100.00;99009.22;5075432;28;20433;-70
2022/12/19 01:30:34;;;;;;;41.43;24.10;;;;;;;-1.64;100.00;99020.22;5075283;28;20445;-70
2022/12/19 01:33:01;;;;;;;36.50;22.27;;;;;;;-1.59;100.00;99010.25;5075015;28;20445;-70
2022/12/19 01:35:28;;;;;;;36.73;22.80;;;;;;;-1.61;100.00;99006.09;5075308;28;20440;-70
2022/12/19 01:37:54;;;;;;;37.60;22.57;;;;;;;-1.53;100.00;98995.91;5074908;28;20940;-69
2022/12/19 01:40:22;;;;;;;37.67;22.87;;;;;;;-1.59;100.00;99006.81;5075179;28;20441;-70
2022/12/19 01:42:49;;;;;;;36.37;22.97;;;;;;;-1.60;100.00;99005.16;5075031;28;20488;-70
2022/12/19 01:45:15;;;;;;;38.33;22.87;;;;;;;-1.60;100.00;98998.19;5075040;28;20473;-70
2022/12/19 01:47:50;;;;;;;38.13;23.43;;;;;;;-1.53;100.00;98981.09;5074675;28;20441;-70
2022/12/19 01:50:23;;;;;;;42.47;23.63;;;;;;;-1.59;100.00;98986.78;5074711;28;20810;-70
2022/12/19 01:52:51;;;;;;;39.97;23.93;;;;;;;-1.61;100.00;98980.88;5074563;28;21094;-70
2022/12/19 01:55:18;;;;;;;39.50;25.80;;;;;;;-1.48;100.00;98984.16;5074828;28;20433;-70
2022/12/19 01:57:44;;;;;;;38.47;24.10;;;;;;;-1.50;100.00;98980.84;5074796;28;20528;-70
2022/12/19 02:00:11;;;;;;;39.00;24.43;;;;;;;-1.48;100.00;98962.47;5074778;28;20444;-70
2022/12/19 02:02:43;;;;;;;42.07;23.73;;;;;;;-1.45;100.00;98959.59;5074625;28;20461;-70
2022/12/19 02:05:09;;;;;;;35.77;22.53;;;;;;;-1.44;100.00;98953.47;5074347;28;20469;-70
2022/12/19 02:07:38;;;;;;;42.20;25.43;;;;;;;-1.45;100.00;98960.44;5074039;28;20532;-70
2022/12/19 02:10:05;;;;;;;40.97;26.00;;;;;;;-1.42;100.00;98954.16;5074535;28;20485;-70
2022/12/19 02:12:36;;;;;;;42.23;25.27;;;;;;;-1.36;100.00;98951.88;5074175;28;20460;-70
2022/12/19 02:15:04;;;;;;;39.63;24.80;;;;;;;-1.40;100.00;98952.28;5074453;28;20422;-70
2022/12/19 02:17:55;;;;;;;38.47;23.57;;;;;;;-1.35;100.00;98958.75;5074413;28;20531;-70
2022/12/19 02:20:46;;;;;;;43.27;25.60;;;;;;;-1.37;100.00;98952.84;5068184;28;20451;-70
2022/12/19 02:23:45;;;;;;;39.73;24.43;;;;;;;-1.38;100.00;98955.56;5074053;28;20900;-70
2022/12/19 02:26:24;;;;;;;40.63;25.47;;;;;;;-1.32;100.00;98950.69;5073953;28;20425;-70
2022/12/19 02:29:13;;;;;;;41.80;25.47;;;;;;;-1.28;100.00;98946.91;5072752;28;20788;-70
2022/12/19 02:31:54;;;;;;;41.37;25.70;;;;;;;-1.24;100.00;98950.91;5074130;28;20556;-70
2022/12/19 02:34:45;;;;;;;40.43;25.63;;;;;;;-1.27;100.00;98961.59;5074152;28;20425;-70
2022/12/19 02:37:22;;;;;;;40.13;24.03;;;;;;;-1.29;100.00;98947.84;5074034;28;20441;-70
2022/12/19 02:39:55;;;;;;;40.77;25.53;;;;;;;-1.30;100.00;98940.16;5074093;28;20417;-70
2022/12/19 02:42:44;;;;;;;40.20;24.77;;;;;;;-1.27;100.00;98942.47;5072640;28;20457;-70
2022/12/19 02:45:14;;;;;;;41.63;25.50;;;;;;;-1.35;100.00;98934.47;5073541;28;20462;-70
2022/12/19 02:47:41;;;;;;;40.47;26.00;;;;;;;-1.31;100.00;98941.91;5073901;28;20468;-70
2022/12/19 02:50:09;;;;;;;42.93;27.10;;;;;;;-1.33;100.00;98937.78;5073467;28;20445;-70
2022/12/19 02:52:35;;;;;;;39.97;25.93;;;;;;;-1.26;100.00;98942.38;5073750;28;20453;-70
2022/12/19 02:55:06;;;;;;;40.47;26.67;;;;;;;-1.33;100.00;98951.66;5073820;28;20452;-70
2022/12/19 02:57:46;;;;;;;38.80;23.97;;;;;;;-1.37;100.00;98947.63;5073803;28;20192;-70
2022/12/19 03:00:19;;;;;;;42.33;25.10;;;;;;;-1.36;100.00;98961.47;5073793;28;20417;-70
2022/12/19 03:03:01;;;;;;;42.60;27.07;;;;;;;-1.28;100.00;98959.94;5073680;28;20472;-70
2022/12/19 03:05:43;;;;;;;41.97;25.73;;;;;;;-1.16;100.00;98952.91;5073288;28;20722;-70
2022/12/19 03:08:18;;;;;;;37.77;25.13;;;;;;;-1.27;100.00;98940.72;5073651;28;20208;-70
2022/12/19 03:11:00;;;;;;;36.23;24.27;;;;;;;-1.22;100.00;98927.31;5073287;28;20915;-70
2022/12/19 03:13:34;;;;;;;38.33;25.00;;;;;;;-1.25;100.00;98927.56;5072476;28;20516;-70
2022/12/19 03:16:02;;;;;;;38.77;24.00;;;;;;;-1.20;100.00;98939.28;5074034;28;20420;-70
2022/12/19 03:18:31;;;;;;;43.67;26.73;;;;;;;-1.24;100.00;98948.31;5072198;28;20437;-70
2022/12/19 03:21:15;;;;;;;42.03;25.67;;;;;;;-1.11;100.00;98948.97;5073209;28;20821;-70
2022/12/19 03:23:43;;;;;;;41.20;24.70;;;;;;;-1.19;100.00;98955.75;5073582;28;20430;-70
2022/12/19 03:26:18;;;;;;;41.63;24.97;;;;;;;-1.18;100.00;98960.84;5072207;28;20485;-70
2022/12/19 03:28:56;;;;;;;45.70;26.17;;;;;;;-1.13;100.00;98960.50;5073561;28;20420;-70
2022/12/19 03:31:26;;;;;;;41.70;24.07;;;;;;;-1.09;100.00;98973.16;5073813;28;20906;-70
2022/12/19 03:34:09;;;;;;;40.17;25.70;;;;;;;-1.12;100.00;98972.56;5073282;28;20203;-70
2022/12/19 03:36:49;;;;;;;38.07;24.43;;;;;;;-0.98;100.00;98972.28;5073405;28;20425;-70
2022/12/19 03:39:17;;;;;;;37.73;25.37;;;;;;;-1.03;100.00;98969.22;5073316;28;20432;-70
2022/12/19 03:44:34;;;;;;;39.27;24.57;;;;;;;-1.10;100.00;98973.25;5073161;28;20440;-70
2022/12/19 03:47:17;;;;;;;36.73;23.97;;;;;;;-1.13;100.00;98963.09;5073119;28;20436;-70
2022/12/19 03:49:45;;;;;;;43.10;25.60;;;;;;;-1.10;100.00;98960.22;5073213;28;20200;-70
2022/12/19 03:52:30;;;;;;;40.37;24.83;;;;;;;-1.05;100.00;98963.28;5073128;28;20456;-70
2022/12/19 03:55:03;;;;;;;37.77;23.17;;;;;;;-1.00;100.00;98959.34;5072952;28;20421;-70
2022/12/19 03:57:41;;;;;;;45.07;24.40;;;;;;;-1.01;100.00;98957.69;5073127;28;20441;-70
2022/12/19 04:00:13;;;;;;;40.63;24.87;;;;;;;-0.99;100.00;98954.97;5073131;28;20491;-70
2022/12/19 04:02:43;;;;;;;41.97;24.17;;;;;;;-1.01;100.00;98951.66;5073017;28;20457;-70
2022/12/19 04:05:14;;;;;;;42.37;25.10;;;;;;;-0.98;100.00;98954.81;5072886;28;20465;-70
2022/12/19 04:07:42;;;;;;;43.57;25.97;;;;;;;-0.90;100.00;98964.66;5071855;28;20422;-70
2022/12/19 04:10:14;;;;;;;38.57;24.17;;;;;;;-0.90;100.00;98959.44;5073012;28;20448;-70
2022/12/19 04:12:54;;;;;;;37.47;24.33;;;;;;;-0.82;100.00;98968.28;5072659;28;20976;-70
2022/12/19 04:15:33;;;;;;;39.20;23.53;;;;;;;-0.79;100.00;98962.00;5072899;28;20559;-70
2022/12/19 04:18:04;;;;;;;40.57;23.60;;;;;;;-0.75;100.00;98972.06;5071826;28;20189;-70
2022/12/19 04:20:32;;;;;;;37.20;22.70;;;;;;;-0.72;100.00;98969.19;5072858;28;20215;-70
2022/12/19 04:23:02;;;;;;;40.10;23.10;;;;;;;-0.71;100.00;98970.03;5071321;28;20212;-70
2022/12/19 04:25:37;;;;;;;36.63;22.67;;;;;;;-0.75;100.00;98972.06;5071454;28;20236;-70
2022/12/19 04:28:07;;;;;;;37.73;23.40;;;;;;;-0.75;100.00;98969.47;5072835;28;20550;-70
2022/12/19 04:30:34;;;;;;;43.37;24.13;;;;;;;-0.71;100.00;98977.84;5075571;28;20237;-70
2022/12/19 04:33:00;;;;;;;38.60;22.97;;;;;;;-0.72;100.00;98971.78;5076468;28;20668;-70
2022/12/19 04:35:27;;;;;;;40.70;24.23;;;;;;;-0.66;100.00;98971.31;5076151;28;20223;-70
2022/12/19 04:37:53;;;;;;;41.43;23.37;;;;;;;-0.63;100.00;98973.66;5076006;28;20200;-70
2022/12/19 04:40:20;;;;;;;42.53;24.20;;;;;;;-0.61;100.00;98976.13;5075980;28;20377;-70
2022/12/19 04:42:46;;;;;;;41.40;24.17;;;;;;;-0.53;100.00;98971.91;5075581;28;20232;-70
2022/12/19 04:45:20;;;;;;;40.93;23.53;;;;;;;-0.54;100.00;98965.03;5075848;28;20228;-71
2022/12/19 04:47:46;;;;;;;37.50;23.70;;;;;;;-0.44;100.00;98963.31;5075631;28;20628;-70
2022/12/19 04:50:13;;;;;;;39.37;23.97;;;;;;;-0.50;100.00;98961.22;5075706;28;20567;-70
2022/12/19 04:52:39;;;;;;;39.83;24.37;;;;;;;-0.42;100.00;98963.19;5075825;28;20221;-70
2022/12/19 04:55:06;;;;;;;38.40;24.73;;;;;;;-0.41;100.00;98963.06;5075552;28;20196;-70
2022/12/19 04:57:33;;;;;;;39.37;23.23;;;;;;;-0.32;100.00;98966.69;5075557;28;20215;-70
2022/12/19 04:59:59;;;;;;;40.53;23.37;;;;;;;-0.35;100.00;98959.13;5075950;28;20575;-69
2022/12/19 05:02:25;;;;;;;37.93;23.53;;;;;;;-0.40;100.00;98961.31;5075488;28;20587;-70
2022/12/19 05:04:52;;;;;;;41.33;24.23;;;;;;;-0.40;100.00;98969.13;5075338;28;20232;-70
2022/12/19 05:07:19;;;;;;;41.57;24.53;;;;;;;-0.34;100.00;98960.78;5075198;28;20208;-70
2022/12/19 05:09:46;;;;;;;39.30;22.80;;;;;;;-0.31;100.00;98958.72;5075212;28;20480;-70
2022/12/19 05:12:12;;;;;;;36.27;23.03;;;;;;;-0.30;100.00;98952.53;5075544;28;20232;-70
2022/12/19 05:14:39;;;;;;;46.13;24.63;;;;;;;-0.31;100.00;98944.84;5075504;28;20227;-70
2022/12/19 05:17:05;;;;;;;41.87;24.23;;;;;;;-0.27;100.00;98948.88;5075185;28;20215;-70
2022/12/19 05:19:31;;;;;;;39.77;23.50;;;;;;;-0.26;100.00;98946.09;5075480;28;20236;-70
2022/12/19 05:21:58;;;;;;;41.33;23.47;;;;;;;-0.19;100.00;98941.19;5075137;28;20587;-70
2022/12/19 05:24:24;;;;;;;39.93;22.77;;;;;;;-0.21;100.00;98943.09;5075089;28;20201;-70
2022/12/19 05:26:51;;;;;;;42.43;23.37;;;;;;;-0.19;100.00;98935.94;5075985;28;20216;-70
2022/12/19 05:29:17;;;;;;;41.47;23.60;;;;;;;-0.17;100.00;98934.06;5075021;28;20208;-70
2022/12/19 05:31:43;;;;;;;42.20;23.70;;;;;;;-0.08;100.00;98930.66;5075745;28;20240;-70
2022/12/19 05:34:10;;;;;;;38.80;22.43;;;;;;;-0.09;100.00;98932.44;5075251;28;20204;-70
2022/12/19 05:36:36;;;;;;;38.27;22.37;;;;;;;0.05;100.00;98934.69;5074768;28;20659;-70
2022/12/19 05:39:03;;;;;;;36.80;23.27;;;;;;;0.01;100.00;98935.91;5074711;28;20205;-70
2022/12/19 05:41:29;;;;;;;36.07;23.13;;;;;;;-0.07;100.00;98932.31;5074075;28;20228;-70
2022/12/19 05:43:56;;;;;;;39.97;23.23;;;;;;;-0.08;100.00;98938.50;5074168;28;20567;-70
2022/12/19 05:46:24;;;;;;;37.67;23.10;;;;;;;-0.05;100.00;98943.44;5074310;28;20330;-70
2022/12/19 05:48:51;;;;;;;39.17;22.90;;;;;;;-0.06;100.00;98936.56;5074417;28;20221;-70
2022/12/19 05:51:17;;;;;;;39.50;22.87;;;;;;;-0.03;100.00;98939.75;5074549;28;20224;-70
2022/12/19 05:53:44;;;;;;;37.67;22.70;;;;;;;-0.02;100.00;98948.41;5074758;28;20205;-71
2022/12/19 05:56:16;;;;;;;34.87;22.80;;;;;;;0.00;100.00;98938.69;5074554;28;20204;-70
2022/12/19 05:58:43;;;;;;;39.10;22.60;;;;;;;0.03;100.00;98924.50;5074193;28;20299;-70
2022/12/19 06:01:18;;;;;;;37.30;23.10;;;;;;;0.06;100.00;98936.34;5073862;28;20568;-70
2022/12/19 06:03:45;;;;;;;39.83;23.27;;;;;;;0.08;100.00;98928.38;5074036;28;20555;-70
2022/12/19 06:06:14;;;;;;;34.00;22.03;;;;;;;0.15;100.00;98924.28;5073894;28;20601;-70
2022/12/19 06:08:41;;;;;;;37.53;22.03;;;;;;;0.17;100.00;98926.75;5073610;28;20209;-70
2022/12/19 06:11:09;;;;;;;38.90;23.20;;;;;;;0.13;100.00;98917.53;5073855;28;20224;-70
2022/12/19 06:13:36;;;;;;;35.77;21.77;;;;;;;0.17;100.00;98921.53;5074081;28;20564;-71
2022/12/19 06:16:12;;;;;;;38.37;22.67;;;;;;;0.23;100.00;98912.19;5073900;28;20514;-70
2022/12/19 06:18:40;;;;;;;35.23;22.27;;;;;;;0.23;100.00;98922.63;5073833;28;20639;-70
2022/12/19 06:21:10;;;;;;;37.13;22.33;;;;;;;0.22;100.00;98911.50;5073809;28;20236;-70
2022/12/19 06:23:37;;;;;;;35.17;21.60;;;;;;;0.24;100.00;98919.06;5073991;28;20200;-70
2022/12/19 06:26:06;;;;;;;37.57;22.33;;;;;;;0.24;100.00;98921.66;5073443;28;20220;-70
2022/12/19 06:28:34;;;;;;;38.03;22.23;;;;;;;0.33;100.00;98926.09;5073551;28;20204;-70
2022/12/19 06:31:03;;;;;;;37.17;22.53;;;;;;;0.35;100.00;98919.94;5073834;28;20267;-70
2022/12/19 06:33:31;;;;;;;34.87;22.20;;;;;;;0.38;100.00;98924.88;5073491;28;20204;-70
2022/12/19 06:36:02;;;;;;;34.27;21.67;;;;;;;0.33;100.00;98920.06;5073068;28;20215;-70
2022/12/19 06:38:30;;;;;;;40.33;22.20;;;;;;;0.38;100.00;98922.25;5073639;28;20189;-70
2022/12/19 06:43:40;;;;;;;37.40;22.90;;;;;;;0.37;100.00;98908.38;5072978;28;20187;-70
2022/12/19 06:46:07;;;;;;;38.23;22.27;;;;;;;0.31;100.00;98902.84;5073142;28;20273;-70
2022/12/19 06:48:33;;;;;;;39.50;23.33;;;;;;;0.30;100.00;98912.47;5073469;28;20577;-71
2022/12/19 06:51:00;;;;;;;37.97;22.30;;;;;;;0.32;100.00;98907.09;5073849;28;20228;-70
2022/12/19 06:53:26;;;;;;;39.47;24.00;;;;;;;0.27;100.00;98911.91;5073020;28;20207;-70
2022/12/19 06:55:55;;;;;;;41.00;23.77;;;;;;;0.31;100.00;98908.06;5073140;28;20576;-70
2022/12/19 06:58:22;;;;;;;39.17;23.73;;;;;;;0.35;100.00;98910.28;5073188;28;20239;-70
2022/12/19 07:00:49;;;;;;;44.30;24.07;;;;;;;0.36;100.00;98905.88;5073176;28;20237;-70
2022/12/19 07:03:21;;;;;;;43.00;23.87;;;;;;;0.31;100.00;98902.84;5073086;28;20230;-70
2022/12/19 07:05:48;;;;;;;39.30;23.43;;;;;;;0.38;100.00;98915.25;5072059;28;20215;-70
2022/12/19 07:08:14;;;;;;;38.20;23.67;;;;;;;0.38;100.00;98910.81;5073198;28;20777;-70
2022/12/19 07:10:41;;;;;;;38.77;23.70;;;;;;;0.44;100.00;98909.47;5072887;28;20240;-70
2022/12/19 07:13:07;;;;;;;38.07;22.17;;;;;;;0.51;100.00;98909.75;5072733;28;20595;-70
2022/12/19 07:15:36;;;;;;;42.07;23.07;;;;;;;0.52;100.00;98912.25;5072854;28;20200;-70
2022/12/19 07:18:05;;;;;;;40.00;22.77;;;;;;;0.54;100.00;98909.50;5072357;28;20734;-70
2022/12/19 07:20:33;;;;;;;44.33;23.50;;;;;;;0.51;100.00;98904.53;5062206;28;20202;-70
2022/12/19 07:23:01;;;;;;;36.03;22.33;;;;;;;0.54;100.00;98910.31;5052408;28;20530;-72
2022/12/19 07:25:28;;;;;;;40.50;23.43;;;;;;;0.53;100.00;98910.47;5052734;28;20799;-72
2022/12/19 07:27:54;;;;;;;41.80;23.53;;;;;;;0.59;100.00;98915.16;5052357;28;20559;-72
2022/12/19 07:30:21;;;;;;;36.37;22.53;;;;;;;0.62;100.00;98907.84;5052332;28;20236;-70
2022/12/19 07:33:01;;;;;;;40.83;23.60;;;;;;;0.63;100.00;98904.25;5052410;28;20708;-70
2022/12/19 07:35:45;;;;;;;39.67;23.57;;;;;;;0.65;100.00;98906.75;5050608;28;20208;-70
2022/12/19 07:41:26;;;;;;;;;;;;;;;;;;;;;
2022/12/19 07:44:02;;;;;;;36.67;22.27;;;;;;;0.82;100.00;98917.38;5046600;28;20216;-70
2022/12/19 07:46:29;;;;;;;40.03;23.47;;;;;;;0.80;100.00;98918.47;5051156;28;20231;-69
2022/12/19 07:49:14;;;;;;;40.10;21.63;;;;;;;0.85;100.00;98918.91;5050973;28;20614;-70
2022/12/19 07:51:41;;;;;;;36.53;22.23;;;;;;;0.86;100.00;98917.94;5050984;28;20259;-70
2022/12/19 07:54:07;;;;;;;38.03;23.03;;;;;;;0.88;100.00;98908.13;5052904;28;20201;-70
2022/12/19 07:56:33;;;;;;;37.83;22.50;;;;;;;0.91;100.00;98923.56;5052735;28;20208;-70
2022/12/19 07:59:00;;;;;;;38.80;21.80;;;;;;;0.93;100.00;98924.25;5052724;28;20208;-70
2022/12/19 08:01:26;;;;;;;38.80;22.30;;;;;;;1.04;100.00;98914.47;5052540;28;20232;-70
2022/12/19 08:03:56;;;;;;;46.20;22.83;;;;;;;1.08;100.00;98910.59;5053166;28;20205;-70
2022/12/19 08:06:23;;;;;;;38.83;21.77;;;;;;;1.13;100.00;98916.25;5056635;28;20247;-71
2022/12/19 08:08:50;;;;;;;36.77;21.93;;;;;;;1.11;100.00;98931.28;5056241;28;20578;-71
2022/12/19 08:11:21;;;;;;;36.67;21.77;;;;;;;1.10;100.00;98931.41;5056172;28;20229;-71
2022/12/19 08:13:48;;;;;;;34.87;21.90;;;;;;;1.20;100.00;98924.38;5056482;28;20190;-70
2022/12/19 08:16:14;;;;;;;37.33;21.97;;;;;;;1.18;100.00;98927.16;5056361;28;20567;-70
2022/12/19 08:18:41;;;;;;;34.63;21.50;;;;;;;1.23;100.00;98934.59;5056748;28;20207;-71
2022/12/19 08:21:08;;;;;;;36.53;21.93;;;;;;;1.27;100.00;98928.94;5056128;28;20233;-70
2022/12/19 08:23:34;;;;;;;36.20;21.90;;;;;;;1.36;100.00;98927.25;5056311;28;20186;-70
2022/12/19 08:26:07;;;;;;;39.43;22.63;;;;;;;1.40;100.00;98936.50;5055785;28;20600;-70
2022/12/19 08:28:35;;;;;;;35.47;22.80;;;;;;;1.47;100.00;98940.19;5056193;28;20215;-71
2022/12/19 08:31:10;;;;;;;37.33;22.00;;;;;;;1.52;100.00;98932.75;5056255;28;20221;-70
2022/12/19 08:33:36;;;;;;;36.20;22.10;;;;;;;1.56;100.00;98945.44;5056224;28;20232;-70
2022/12/19 08:36:08;;;;;;;34.73;20.53;;;;;;;1.63;100.00;98941.25;5055880;28;20211;-70
2022/12/19 08:38:36;;;;;;;31.63;20.07;;;;;;;1.65;100.00;98934.09;5055714;28;20194;-70
2022/12/19 08:41:02;;;;;;;34.13;20.73;;;;;;;1.68;100.00;98927.75;5055859;28;20229;-70
2022/12/19 08:43:29;;;;;;;36.40;21.77;;;;;;;1.70;100.00;98934.50;5055562;28;20227;-71
2022/12/19 08:45:56;;;;;;;40.50;23.20;;;;;;;1.76;100.00;98927.88;5055590;28;20225;-71
2022/12/19 08:48:22;;;;;;;38.33;21.07;;;;;;;1.84;100.00;98931.41;5055478;28;20707;-70
2022/12/19 08:51:00;;;;;;;36.27;21.50;;;;;;;1.85;100.00;98937.50;5055701;28;20221;-71
2022/12/19 08:53:29;;;;;;;36.37;21.60;;;;;;;1.92;100.00;98925.44;5056001;28;20185;-70
2022/12/19 08:56:01;;;;;;;31.93;20.03;;;;;;;1.98;100.00;98928.31;5055284;28;20559;-70
2022/12/19 08:58:30;;;;;;;38.80;20.80;;;;;;;1.91;100.00;98921.19;5055355;28;20209;-70
2022/12/19 09:01:00;;;;;;;33.30;21.83;;;;;;;2.01;100.00;98924.59;5055564;28;20226;-69
2022/12/19 09:03:27;;;;;;;33.80;21.87;;;;;;;1.95;100.00;98920.78;5055728;28;20201;-70
2022/12/19 09:06:01;;;;;;;35.07;21.27;;;;;;;2.00;100.00;98920.31;5055432;28;20225;-70
2022/12/19 09:08:28;;;;;;;34.63;21.37;;;;;;;2.08;100.00;98913.38;5055365;28;20311;-71
2022/12/19 09:11:04;;;;;;;32.13;20.97;;;;;;;2.14;100.00;98918.06;5055002;28;20324;-69
2022/12/19 09:13:32;;;;;;;36.07;20.70;;;;;;;2.15;100.00;98908.38;5054888;28;20192;-69
2022/12/19 09:16:12;;;;;;;31.13;19.97;;;;;;;2.19;100.00;98907.13;5054849;28;20202;-70
2022/12/19 09:18:38;;;;;;;30.63;19.50;;;;;;;2.19;100.00;98907.13;5055469;28;20194;-69
2022/12/19 09:21:05;;;;;;;31.77;19.23;;;;;;;2.32;100.00;98903.19;5055094;28;20225;-69
2022/12/19 09:23:32;;;;;;;30.97;19.23;;;;;;;2.34;100.00;98918.78;5055414;28;20194;-69
2022/12/19 09:26:07;;;;;;;28.00;18.60;;;;;;;2.40;100.00;98916.38;5055134;28;20236;-69
2022/12/19 09:28:35;;;;;;;30.73;20.10;;;;;;;2.43;100.00;98913.47;5055105;28;20204;-69
2022/12/19 09:31:04;;;;;;;33.57;20.53;;;;;;;2.53;100.00;98916.06;5054920;28;20245;-69
2022/12/19 09:33:33;;;;;;;29.63;20.10;;;;;;;2.56;100.00;98913.09;5055028;28;20208;-70
2022/12/19 09:36:00;;;;;;;29.47;18.10;;;;;;;2.71;100.00;98909.03;5054997;28;20208;-70
2022/12/19 09:38:28;;;;;;;31.00;19.80;;;;;;;2.82;100.00;98916.66;5055361;28;20224;-70
2022/12/19 09:40:58;;;;;;;32.53;19.43;;;;;;;2.99;100.00;98911.41;5054520;28;20232;-70
2022/12/19 09:43:33;;;;;;;28.43;18.40;;;;;;;2.87;100.00;98909.16;5054448;28;20213;-69
2022/12/19 09:46:15;;;;;;;32.47;20.47;;;;;;;3.06;100.00;98904.59;5054333;28;20213;-70
2022/12/19 09:48:42;;;;;;;30.23;19.13;;;;;;;2.88;100.00;98909.03;5037550;28;20193;-69
2022/12/19 09:51:22;;;;;;;28.80;18.83;;;;;;;2.89;100.00;98909.84;5054706;28;20635;-70
2022/12/19 09:53:57;;;;;;;31.20;18.87;;;;;;;2.89;100.00;98907.22;5053387;28;20200;-70
2022/12/19 09:56:29;;;;;;;30.30;18.50;;;;;;;3.05;100.00;98891.59;5054701;28;20199;-70
2022/12/19 09:59:04;;;;;;;30.63;19.00;;;;;;;3.07;100.00;98893.09;5054417;28;20219;-69
2022/12/19 10:01:37;;;;;;;36.57;19.93;;;;;;;3.07;100.00;98902.78;5053101;28;20771;-69
2022/12/19 10:04:11;;;;;;;30.00;18.67;;;;;;;3.13;100.00;98892.50;5052982;28;20196;-70
2022/12/19 10:06:38;;;;;;;29.33;19.10;;;;;;;3.25;100.00;98900.97;5054201;28;20209;-70
2022/12/19 10:09:11;;;;;;;28.37;17.90;;;;;;;3.34;100.00;98898.25;5054319;28;20217;-69
2022/12/19 10:11:59;;;;;;;30.57;17.60;;;;;;;3.41;100.00;98898.44;5058638;28;20217;-69
2022/12/19 10:14:42;;;;;;;30.17;18.87;;;;;;;3.42;100.00;98887.78;5073615;28;20192;-69
2022/12/19 10:17:33;;;;;;;31.93;18.30;;;;;;;3.69;100.00;98878.91;5073706;28;20268;-69
2022/12/19 10:20:24;;;;;;;30.37;18.73;;;;;;;3.57;100.00;98865.22;5073804;28;20632;-69
2022/12/19 10:23:02;;;;;;;27.43;17.07;;;;;;;3.54;100.00;98872.59;5073686;28;20282;-69
2022/12/19 10:25:40;;;;;;;28.57;18.73;;;;;;;3.46;100.00;98872.53;5072667;28;20195;-69
2022/12/19 10:28:32;;;;;;;26.43;17.83;;;;;;;3.37;100.00;98869.03;5073141;28;20562;-69
2022/12/19 10:31:17;;;;;;;27.63;18.10;;;;;;;3.43;100.00;98881.56;5073730;28;20248;-69
2022/12/19 10:33:53;;;;;;;31.77;19.57;;;;;;;3.76;100.00;98870.25;5073539;28;20565;-70
2022/12/19 10:36:19;;;;;;;27.60;17.07;;;;;;;3.75;100.00;98865.16;5073678;28;20181;-69
2022/12/19 10:39:03;;;;;;;30.57;18.10;;;;;;;3.73;100.00;98864.47;5073767;28;20204;-70
2022/12/19 10:41:33;;;;;;;27.17;18.73;;;;;;;3.71;100.00;98850.66;5073668;28;20231;-70
2022/12/19 10:44:08;;;;;;;29.50;17.97;;;;;;;3.73;100.00;98848.69;5072779;28;20568;-69
2022/12/19 10:46:44;;;;;;;29.93;19.57;;;;;;;3.70;100.00;98856.91;5071918;28;20299;-69
2022/12/19 10:49:20;;;;;;;28.07;18.57;;;;;;;3.74;100.00;98845.09;5073464;28;20266;-69
2022/12/19 10:52:01;;;;;;;33.20;19.13;;;;;;;3.59;100.00;98855.38;5073762;28;20690;-69
2022/12/19 10:54:38;;;;;;;26.47;18.20;;;;;;;3.58;100.00;98866.88;5072920;28;20592;-69
2022/12/19 10:57:31;;;;;;;26.27;18.30;;;;;;;3.69;100.00;98850.81;5072980;28;20230;-69
2022/12/19 10:59:58;;;;;;;26.73;18.17;;;;;;;3.79;100.00;98853.34;5071212;28;20333;-69
2022/12/19 11:02:44;;;;;;;26.70;17.93;;;;;;;3.76;100.00;98848.41;5073757;28;20355;-69
2022/12/19 11:05:22;;;;;;;31.37;18.43;;;;;;;3.70;100.00;98823.53;5073423;28;20189;-70
2022/12/19 11:08:08;;;;;;;29.93;18.80;;;;;;;3.66;100.00;98818.78;5073165;28;20221;-69
2022/12/19 11:10:37;;;;;;;33.80;19.50;;;;;;;3.73;100.00;98822.41;5071915;28;20197;-69
2022/12/19 11:13:34;;;;;;;30.40;20.17;;;;;;;3.80;100.00;98818.97;5073214;28;20211;-69
2022/12/19 11:16:04;;;;;;;29.07;19.30;;;;;;;3.78;100.00;98817.50;5072754;28;20209;-69
2022/12/19 11:18:47;;;;;;;29.77;19.00;;;;;;;3.68;100.00;98824.69;5073206;28;20208;-69
2022/12/19 11:21:33;;;;;;;27.97;19.10;;;;;;;3.68;100.00;98819.41;5073171;28;20239;-69
2022/12/19 11:24:00;;;;;;;34.70;21.30;;;;;;;3.75;100.00;98816.00;5074025;28;20185;-69
2022/12/19 11:26:42;;;;;;;35.67;21.23;;;;;;;3.71;100.00;98812.03;5073085;28;20228;-69
2022/12/19 11:29:27;;;;;;;31.83;20.53;;;;;;;3.89;100.00;98807.50;5073176;28;20231;-71
2022/12/19 11:31:59;;;;;;;30.73;21.47;;;;;;;3.80;100.00;98805.84;5072606;28;20711;-71
2022/12/19 11:34:29;;;;;;;34.50;20.73;;;;;;;3.95;100.00;98800.81;5072950;28;20623;-71
2022/12/19 11:36:58;;;;;;;29.37;20.13;;;;;;;3.96;100.00;98802.44;5072784;28;20204;-71
2022/12/19 11:39:40;;;;;;;29.27;19.67;;;;;;;4.02;100.00;98804.44;5074631;28;20201;-72
2022/12/19 11:42:19;;;;;;;28.90;19.73;;;;;;;3.99;100.00;98788.97;5076360;28;20306;-71